Hurricane Symbol View the latest observations near Atlantic Tropical Storm Alberto.

Station NJLC1 - 9418768 - North Jetty Landing, CA Image indicating link to RSS feed of recent meteorological observations for station NJLC1


Conditions at NJLC1 as of
(12:30 am PDT)
0730 GMT on 06/20/2024:
     

Click on the graph icon in the table below to see a time series plot of the last five days of that observation.

5-day plot - Wind Direction Wind Direction (WDIR):NNE ( 20 deg true )
5-day plot - Wind Speed Wind Speed (WSPD): 5.1 kts
5-day plot - Wind Gust Wind Gust (GST): 6.0 kts
5-day plot - Air Temperature Air Temperature (ATMP): 50.9 °F
5-day plot - Wind Chill Wind Chill (CHILL): 48.9 °F
5-day plot - Wind Speed at 10 Meters Wind Speed at 10 meters (WSPD10M): 5.8 kts
5-day plot - Wind Speed at 20 Meters Wind Speed at 20 meters (WSPD20M): 5.8 kts
5-day plot -  Wind Speed, Wind Gust and Atmospheric Pressure Combined plot of Wind Speed, Gust, and Air Pressure
NOS Water Level Observation Network Water Level
Previous observations
TIME
(PDT)
5-day plot - Wind Direction
WDIR
 
5-day plot - Wind Speed
WSPD
kts
5-day plot - Wind Gust
GST
kts
5-day plot - Wave Height
WVHT
ft
5-day plot - Dominant Wave Period
DPD
sec
5-day plot - Average Wave Period
APD
sec
5-day plot - Mean Wave Direction
MWD
 
5-day plot - Atmospheric Pressure
PRES
in
5-day plot - Pressure Tendency
PTDY
in
5-day plot - Air Temperature
ATMP
°F
5-day plot - Water Temperature
WTMP
°F
5-day plot - Dew Point
DEWP
°F
5-day plot - Salinity
SAL
psu
5-day plot - Visibility
VIS
nmi
5-day plot - Tide (above MLLW)
TIDE
ft
2024-06-20 12:24 amNNE 6.0 7.0------ 50.9-----
2024-06-20 12:18 amNNE 6.0 7.0------------
2024-06-20 12:12 amNNE 7.0 8.0------ 50.9-----
2024-06-20 12:06 amNNE 7.0 8.0------ 50.9-----
2024-06-20 12:00 amNNE 6.0 8.0------ 50.7-----
2024-06-19 11:54 pmNNE 7.0 8.0------ 50.9-----
2024-06-19 11:48 pmNNE 7.0 8.0------ 50.7-----
2024-06-19 11:42 pmNNE 7.0 7.0------ 50.5-----
2024-06-19 11:36 pm N 6.0 8.0------ 50.5-----
2024-06-19 11:30 pm N 7.0 8.0------ 50.5-----
2024-06-19 11:24 pmNNE 8.0 9.9------ 50.5-----
2024-06-19 11:18 pmNNE 8.0 9.9------ 50.7-----
2024-06-19 11:12 pmNNE 8.9 11.1------ 50.7-----
2024-06-19 11:06 pmNNE 8.9 11.1------ 50.7-----
2024-06-19 11:00 pmNNE 9.9 11.1------ 50.5-----
2024-06-19 10:54 pmNNE 9.9 11.1------ 50.7-----
2024-06-19 10:48 pm N 8.9 11.1------ 50.5-----
2024-06-19 10:42 pm N 9.9 12.0------ 50.5-----
2024-06-19 10:36 pmNNE 9.9 11.1------ 50.5-----
2024-06-19 10:30 pm N 8.9 11.1------ 50.5-----
2024-06-19 10:24 pm N 8.0 9.9------ 50.5-----
2024-06-19 10:18 pm N 8.9 9.9------ 50.5-----
2024-06-19 10:12 pm N 8.0 8.9------ 50.5-----
2024-06-19 10:06 pm N 8.0 9.9------ 50.5-----
2024-06-19 10:00 pm N 8.0 8.9------ 50.5-----
2024-06-19 09:54 pm N 7.0 8.0------ 50.5-----
2024-06-19 09:48 pmNNE 6.0 8.9------------
2024-06-19 09:42 pmNNE 8.9 11.1------ 50.4-----
2024-06-19 09:36 pmNNE 8.0 11.1------ 50.4-----
2024-06-19 09:30 pmNNE 8.9 13.0------ 50.4-----
2024-06-19 09:24 pmNNE 12.0 13.0------ 50.4-----
2024-06-19 09:18 pmNNE 9.9 12.0------------
2024-06-19 09:12 pmNNE 11.1 12.0------ 50.2-----
2024-06-19 09:06 pmNNE 11.1 12.0------ 50.2-----
2024-06-19 09:00 pm N 12.0 13.0------ 50.2-----
2024-06-19 08:54 pmNNE 12.0 13.0------ 50.4-----
2024-06-19 08:48 pm N 12.0 13.0------------
2024-06-19 08:42 pm N 12.0 14.0------ 50.2-----
2024-06-19 08:36 pm N 11.1 14.0------ 50.2-----
2024-06-19 08:30 pm N 12.0 14.0------ 50.2-----
2024-06-19 08:24 pm N 9.9 12.0------ 50.2-----
2024-06-19 08:18 pm N 8.9 12.0------------
2024-06-19 08:12 pm N 11.1 12.0------ 50.0-----
2024-06-19 08:06 pm N 11.1 12.0------ 50.0-----
2024-06-19 08:00 pm N 12.0 13.0------ 50.0-----
2024-06-19 07:54 pm N 9.9 12.0------ 50.0-----
2024-06-19 07:48 pm N 9.9 12.0------ 49.8-----
2024-06-19 07:42 pm N 11.1 12.0------ 49.8-----
2024-06-19 07:36 pm N 11.1 12.0------ 49.8-----
2024-06-19 07:30 pm N 9.9 13.0------ 49.8-----
2024-06-19 07:24 pm N 12.0 15.0------ 49.6-----
2024-06-19 07:18 pm N 11.1 14.0------ 49.6-----
2024-06-19 07:12 pmNNE 9.9 12.0------ 49.8-----
2024-06-19 07:06 pmNNE 9.9 12.0------ 49.8-----
2024-06-19 07:00 pm N 11.1 13.0------ 49.8-----
2024-06-19 06:54 pmNNE 12.0 15.0------ 50.0-----
2024-06-19 06:48 pmNNE 13.0 15.9------------
2024-06-19 06:42 pm N 15.0 15.9------ 50.0-----
2024-06-19 06:36 pm N 13.0 15.0------ 50.2-----
2024-06-19 06:30 pm N 12.0 14.0------ 50.4-----
2024-06-19 06:24 pm N 12.0 13.0------ 50.4-----
2024-06-19 06:18 pm N 11.1 14.0------ 50.4-----
2024-06-19 06:12 pm N 9.9 12.0------ 50.4-----
2024-06-19 06:06 pmNNE 8.9 9.9------ 50.4-----
2024-06-19 06:00 pmNNE 8.9 12.0------ 50.4-----
2024-06-19 05:54 pm N 9.9 12.0------ 50.5-----
2024-06-19 05:48 pm N 12.0 13.0------------
2024-06-19 05:42 pm N 12.0 13.0------ 50.4-----
2024-06-19 05:36 pm N 12.0 14.0------ 50.2-----
2024-06-19 05:30 pm N 13.0 15.0------ 50.2-----
2024-06-19 05:24 pm N 14.0 15.9------ 50.2-----
2024-06-19 05:18 pm N 14.0 15.9------------
2024-06-19 05:12 pm N 13.0 15.0------ 50.0-----
2024-06-19 05:06 pm N 14.0 17.1------ 49.8-----
2024-06-19 05:00 pm N 14.0 18.1------ 49.8-----
2024-06-19 04:54 pm N 13.0 15.9------ 49.6-----
2024-06-19 04:48 pmNNW 14.0 15.0------------
2024-06-19 04:42 pmNNW 12.0 13.0------ 49.6-----
2024-06-19 04:36 pmNNW 8.9 11.1------ 50.2-----
2024-06-19 04:30 pmNNW 8.9 9.9------ 50.0-----
2024-06-19 04:24 pmNNW 7.0 8.9------ 50.2-----
2024-06-19 04:18 pm N 6.0 8.0------ 50.2-----
2024-06-19 04:12 pmNNW 7.0 8.9------ 50.0-----
2024-06-19 04:06 pmNNW 6.0 8.0------ 49.8-----
2024-06-19 04:00 pm N 7.0 8.9------ 49.6-----
2024-06-19 03:54 pmNNW 8.9 12.0------ 49.5-----
2024-06-19 03:48 pmNNW 8.9 11.1------------
2024-06-19 03:42 pmNNW 8.0 9.9------------
2024-06-19 03:36 pmNNW 8.9 9.9------------
2024-06-19 03:30 pmNNW 7.0 8.9------ 49.6-----
2024-06-19 03:24 pmNNW 8.0 8.9------ 49.5-----
2024-06-19 03:18 pmNNW 8.0 11.1------ 49.3-----
2024-06-19 03:12 pmNNW 9.9 9.9------ 49.3-----
2024-06-19 03:06 pm N 8.9 11.1------ 49.3-----
2024-06-19 03:00 pmNNW 8.9 11.1------ 49.3-----
2024-06-19 02:54 pm N 8.9 11.1------ 49.1-----
2024-06-19 02:48 pm N 8.9 9.9------------
2024-06-19 02:42 pmNNE 8.9 11.1------ 48.7-----
2024-06-19 02:36 pm N 11.1 12.0------ 48.7-----
2024-06-19 02:30 pm N 9.9 11.1------ 49.1-----
2024-06-19 02:24 pm N 9.9 12.0------ 49.1-----
2024-06-19 02:18 pm N 8.9 9.9------------
2024-06-19 02:12 pm N 8.9 12.0------ 48.7-----
2024-06-19 02:06 pm N 9.9 12.0------ 48.4-----
2024-06-19 02:00 pm N 8.9 11.1------ 48.4-----
2024-06-19 01:54 pmNNW 9.9 11.1------ 48.6-----
2024-06-19 01:48 pm N 8.9 11.1------------
2024-06-19 01:42 pm NW 8.0 8.9------ 48.7-----
2024-06-19 01:36 pm NW 9.9 12.0------ 48.7-----
2024-06-19 01:30 pm NW 9.9 11.1------ 49.5-----
2024-06-19 01:24 pm NW 9.9 11.1------ 49.8-----
2024-06-19 01:18 pmWNW 8.9 12.0------------
2024-06-19 01:12 pmWNW 9.9 11.1------ 50.2-----
2024-06-19 01:06 pmWNW 11.1 14.0------ 50.0-----
2024-06-19 01:00 pmWNW 12.0 14.0------ 50.2-----
2024-06-19 12:54 pm W 12.0 13.0------ 50.2-----
2024-06-19 12:48 pm W 11.1 12.0------ 50.2-----
2024-06-19 12:42 pm W 9.9 11.1------ 50.0-----
2024-06-19 12:36 pm W 9.9 11.1------ 50.0-----
2024-06-19 12:30 pmWSW 8.0 9.9------ 50.4-----
2024-06-19 12:24 pmWSW 8.0 9.9------ 50.5-----
2024-06-19 12:18 pm SW 5.1 8.9------ 51.1-----
2024-06-19 12:12 pmSSW 8.0 8.9------ 50.2-----
2024-06-19 12:06 pmSSW 8.0 9.9------ 50.0-----
2024-06-19 12:00 pmSSW 8.0 8.9------ 50.0-----
2024-06-19 11:54 amSSW 6.0 8.0------ 50.0-----
2024-06-19 11:48 am SW 5.1 7.0------ 50.4-----
2024-06-19 11:42 amSSW 5.1 8.0------ 50.2-----
2024-06-19 11:36 amSSW 6.0 7.0------ 50.0-----
2024-06-19 11:30 amWSW 5.1 8.0------ 50.0-----
2024-06-19 11:24 amWSW 4.1 6.0------ 50.0-----
2024-06-19 11:18 amWSW 5.1 8.9------ 49.5-----
2024-06-19 11:12 amWSW 8.9 9.9------ 49.1-----
2024-06-19 11:06 amWSW 5.1 9.9------ 49.5-----
2024-06-19 11:00 amWSW 7.0 9.9------ 49.1-----
2024-06-19 10:54 amWSW 5.1 7.0------ 49.1-----
2024-06-19 10:48 amSSW 6.0 7.0------ 49.1-----
2024-06-19 10:42 amWSW 6.0 8.9------ 49.1-----
2024-06-19 10:36 amWSW 6.0 8.0------ 48.9-----
2024-06-19 10:30 am S 4.1 5.1------ 48.6-----
2024-06-19 10:24 amSSW 2.9 5.1------ 48.7-----
2024-06-19 10:18 am S 2.9 4.1------------
2024-06-19 10:12 amWSW 1.9 2.9------ 48.9-----
2024-06-19 10:06 am W 2.9 5.1------ 48.7-----
2024-06-19 10:00 am W 5.1 6.0------ 48.6-----
2024-06-19 09:54 am W 4.1 5.1------ 48.6-----
2024-06-19 09:48 am W 5.1 7.0------ 48.2-----
2024-06-19 09:42 amWSW 5.1 8.0------ 48.4-----
2024-06-19 09:36 am W 5.1 6.0------ 48.4-----
2024-06-19 09:30 amWSW 4.1 7.0------ 48.6-----
2024-06-19 09:24 am SW 4.1 6.0------ 48.7-----
2024-06-19 09:18 am SW 5.1 7.0------ 48.6-----
2024-06-19 09:12 amSSW 7.0 7.0------ 48.4-----
2024-06-19 09:06 am SW 5.1 8.0------ 48.6-----
2024-06-19 09:00 am SW 7.0 9.9------ 48.4-----
2024-06-19 08:54 amWSW 8.0 9.9------ 48.2-----
2024-06-19 08:48 amWSW 8.9 9.9------ 48.2-----
2024-06-19 08:42 amWSW 6.0 7.0------ 48.2-----
2024-06-19 08:36 am W 7.0 8.0------ 48.2-----
2024-06-19 08:30 amWSW 5.1 7.0------ 48.4-----
2024-06-19 08:24 am W 6.0 7.0------ 48.2-----
2024-06-19 08:18 am W 7.0 8.0------ 48.2-----
2024-06-19 08:12 am W 7.0 8.0------ 48.2-----
2024-06-19 08:06 am W 6.0 7.0------ 48.4-----
2024-06-19 08:00 am SW 4.1 8.0------ 48.9-----
2024-06-19 07:54 amSSW 6.0 8.0------ 48.7-----
2024-06-19 07:48 am SW 4.1 6.0------ 48.9-----
2024-06-19 07:42 amSSW 4.1 7.0------ 48.9-----
2024-06-19 07:36 am W 7.0 8.0------ 48.7-----
2024-06-19 07:30 am SW 4.1 8.0------ 48.9-----
2024-06-19 07:24 amSSW 7.0 7.0------ 48.9-----
2024-06-19 07:18 am SW 5.1 7.0------ 48.9-----
2024-06-19 07:12 amSSW 7.0 8.0------ 48.9-----
2024-06-19 07:06 amSSW 7.0 8.0------ 48.9-----
2024-06-19 07:00 am SW 4.1 5.1------ 49.1-----
2024-06-19 06:54 amWSW 2.9 5.1------ 48.9-----
2024-06-19 06:48 am SW 2.9 5.1------------
2024-06-19 06:42 amWSW 5.1 7.0------ 49.1-----
2024-06-19 06:36 am SW 4.1 5.1------ 49.1-----
2024-06-19 06:30 am SW 4.1 6.0------ 49.1-----
2024-06-19 06:24 amWSW 2.9 4.1------ 49.3-----
2024-06-19 06:18 amSSW 2.9 4.1------------
2024-06-19 06:12 am SW 2.9 5.1------ 49.5-----
2024-06-19 06:06 am SW 4.1 7.0------ 49.5-----
2024-06-19 06:00 amSSW 5.1 7.0------ 49.3-----
2024-06-19 05:54 amWSW 1.0 2.9------ 49.6-----
2024-06-19 05:48 amWSW 1.9 2.9------------
2024-06-19 05:42 am SW 2.9 5.1------ 49.5-----
2024-06-19 05:36 am W 4.1 6.0------ 49.5-----
2024-06-19 05:30 am SW 5.1 7.0------ 49.3-----
2024-06-19 05:24 am SW 5.1 7.0------ 49.5-----
2024-06-19 05:18 am SW 4.1 6.0------ 49.6-----
2024-06-19 05:12 am SW 5.1 5.1------ 49.6-----
2024-06-19 05:06 amSSE 2.9 2.9------ 49.5-----
2024-06-19 05:00 am SE 1.9 2.9------ 49.1-----
2024-06-19 04:54 am SE 1.9 4.1------ 49.1-----
2024-06-19 04:48 amSSE 1.9 2.9------------
2024-06-19 04:42 amESE 1.9 4.1------------
2024-06-19 04:36 amESE 2.9 2.9------------
2024-06-19 04:30 am E 1.9 1.9------ 49.3-----
2024-06-19 04:24 am- 0.0 1.0------ 49.5-----
2024-06-19 04:18 am- 0.0 1.9------ 50.0-----
2024-06-19 04:12 am S 1.0 4.1------ 49.8-----
2024-06-19 04:06 am S 4.1 4.1------ 49.8-----
2024-06-19 04:00 amSSW 1.9 4.1------ 49.8-----
2024-06-19 03:54 amWSW 1.9 2.9------ 49.8-----
2024-06-19 03:48 am- 0.0 1.9------ 49.6-----
2024-06-19 03:42 am- 0.0 1.9------ 49.3-----
2024-06-19 03:36 amSSE 1.9 1.9------ 49.3-----
2024-06-19 03:30 am S 1.9 2.9------ 48.7-----
2024-06-19 03:24 amSSE 1.9 2.9------ 48.0-----
2024-06-19 03:18 am SE 2.9 2.9------ 48.0-----
2024-06-19 03:12 am SE 2.9 4.1------ 48.0-----
2024-06-19 03:06 amESE 1.9 2.9------ 47.7-----
2024-06-19 03:00 am- 0.0 1.9------ 47.7-----
2024-06-19 02:54 am SE 2.9 4.1------ 47.7-----
2024-06-19 02:48 am SE 2.9 4.1------------
2024-06-19 02:42 am SE 2.9 5.1------ 47.5-----
2024-06-19 02:36 am SE 4.1 4.1------ 47.7-----
2024-06-19 02:30 am SE 4.1 4.1------ 47.7-----
2024-06-19 02:24 am SE 4.1 4.1------ 47.8-----
2024-06-19 02:18 am SE 4.1 4.1------------
2024-06-19 02:12 am SE 2.9 4.1------ 47.7-----
2024-06-19 02:06 am SE 2.9 4.1------ 47.8-----
2024-06-19 02:00 am SE 2.9 4.1------ 47.5-----
2024-06-19 01:54 am SE 2.9 2.9------ 47.8-----
2024-06-19 01:48 am SE 2.9 4.1------ 47.8-----
2024-06-19 01:42 am SE 2.9 4.1------ 47.5-----
2024-06-19 01:36 amESE 2.9 2.9------ 47.5-----
2024-06-19 01:30 am SE 1.9 2.9------ 48.0-----
2024-06-19 01:24 am SE 1.9 4.1------ 48.4-----
2024-06-19 01:18 amSSE 2.9 4.1------ 48.7-----
2024-06-19 01:12 amSSE 2.9 4.1------ 49.1-----
2024-06-19 01:06 amSSE 2.9 4.1------ 49.3-----
2024-06-19 01:00 amSSE 2.9 4.1------ 49.3-----
2024-06-19 12:54 am S 4.1 5.1------ 49.5-----